Logo AVAMET
Benvolgut visitant, si us plau, ingressa Recuperar contrasenya

Inforatge Xeraco centre

Dades diàries. Acumulats / Últims 30 dies disponibles

Data Temperatura (°C) Humitat rel. (%) Pressió rel. (hPa) Vent (km/h) Precipitació
Mínima Mitjana Màxima Amplitud
tèrmica
Mínima Mitjana Màxima Mínima Mitjana Màxima Predom. Mitjana Ràfega
màxima
Total
(mm)
Índex-n
Mínima Mitjana Màxima Mínima Mitjana Màxima n
0 a 1
P0 max
mm 5'
Dades mensuals acumulades fins l'últim dia disponible
10/2019 16,3 19,1 21,1 22,8 24,6 26,6 32,9 16,6 23 68 93 1.009 1.017 1.024   4,6 59,5 2,4
Dades anuals acumulades fins l'últim dia disponible
2019 4,2 16,2 27,3 19,9 11,6 23,7 39,2 35,0 15 67 97 995 1.018 1.037   6,4 80,6 329,2
Últims 30 dies disponibles
15-10-2019 16,3     19,9     24,7 8,4 28 43 61 1.015 1.019 1.021 O 12,5 59,5 0,0
14-10-2019 20,6     22,5     24,6 4,0 45 83 93 1.012 1.015 1.018 W 4,0 51,5 1,4
13-10-2019 19,6     22,8     25,6 6,0 72 84 91 1.017 1.018 1.019 W 3,9 19,3 0,0
12-10-2019 18,7     21,9     25,2 6,5 75 85 93 1.018 1.019 1.021 W 2,6 14,5 0,0
11-10-2019 18,5     21,8     24,9 6,4 75 84 92 1.020 1.022 1.024 W 3,7 29,0 0,0
10-10-2019 21,1     22,0     25,0 3,9 NW 3,4 20,9 1,0
09-10-2019 19,6     23,0     25,8 6,2 NE 3,5 19,3 0,0
08-10-2019 17,9     22,7     28,1 10,2 E 3,2 17,7 0,0
07-10-2019 19,8     22,7     27,1 7,3 W 5,3 30,6 0,0
06-10-2019 19,1     22,6     25,8 6,7 W 4,7 22,5 0,0
05-10-2019 18,8     23,7     25,8 7,0 64 69 87 1.015 1.016 1.017 SE 0,9 13,0 0,0
04-10-2019 17,9     23,1     27,8 9,9 43 68 83 1.014 1.017 1.019 S 3,6 20,9 0,0
03-10-2019 18,2     22,4     26,3 8,1 37 54 73 1.016 1.018 1.019 SO 4,7 25,9 0,0
02-10-2019 20,8     25,4     29,4 8,6 26 43 63 1.011 1.015 1.018 SO 8,4 37,0 0,0
01-10-2019 19,9     26,2     32,9 13,0 23 66 93 1.009 1.012 1.017 SSO 5,1 33,9 0,0
30-09-2019 20,3     23,5     26,7 6,4 68 82 89 1.016 1.017 1.019 SSE 3,5 24,1 0,0
29-09-2019 20,9     25,4     30,9 10,0 33 72 89 1.015 1.018 1.020 S 3,8 19,3 0,0
28-09-2019 19,6     23,9     27,9 8,3 68 82 93 1.019 1.020 1.022 SSO 4,3 22,6 0,0
27-09-2019 20,9     25,5     30,7 9,8 47 74 90 1.016 1.018 1.020 SSO 3,7 27,8 0,0
26-09-2019 20,8     24,2     28,4 7,6 71 81 91 1.018 1.019 1.021 S 3,2 22,6 0,0
25-09-2019 23,1     26,2     30,5 7,4 32 60 85 1.014 1.016 1.019 SO 10,5 38,9 0,0
24-09-2019 19,4     27,2     35,3 15,9 21 48 78 1.014 1.017 1.020 SSO 4,5 32,2 0,0
23-09-2019 21,8     24,1     26,2 4,4 47 61 77 1.017 1.019 1.021 S 7,0 27,8 0,0
22-09-2019 22,5     26,3     31,5 9,0 46 70 92 1.013 1.014 1.017 SSO 5,9 35,4 0,0
21-09-2019 22,2     24,1     26,3 4,1 73 85 93 1.012 1.014 1.016 SSO 3,9 24,1 0,6
20-09-2019 22,2     23,7     26,3 4,1 78 85 90 1.016 1.018 1.019 S 4,3 29,6 0,0
19-09-2019 20,2     23,4     26,2 6,0 68 79 88 1.017 1.018 1.019 SSE 3,9 24,1 0,0
18-09-2019 20,3     26,4     28,2 7,9 50 64 85 1.015 1.016 1.017 SSE 6,0 22,6 0,0
17-09-2019 20,9     23,6     26,8 5,9 74 81 88 1.015 1.018 1.019 S 3,1 22,6 0,0
16-09-2019 21,7     24,1     26,4 4,7 75 86 95 1.018 1.019 1.021 E 7,1 27,8 0,0
Últims 13 mesos disponibles
09/2019 15,3 21,0 24,3 24,4 23,3 27,6 35,3 20,0 42 74 90 1.011 1.019 1.025 S 6,2 77,8 58,6
08/2019 19,2 23,7 27,3 26,8 24,9 30,4 37,1 17,9 53 74 82 1.011 1.016 1.021 SSE 5,6 55,6 5,2
07/2019 21,3 23,9 26,4 27,0 27,1 30,6 39,2 17,9 43 70 82 1.006 1.015 1.022 SSE 6,3 56,3 0,2
06/2019 14,6 18,9 22,7 22,8 20,3 26,8 33,0 18,4 37 68 84 1.009 1.016 1.023 SSE 6,4 50,0 0,2
05/2019 11,2 15,6 23,2 19,2 17,9 23,5 31,8 20,6 47 68 82 1.006 1.016 1.025 SSE 6,2 56,3 9,0
04/2019 10,0 12,7 15,2 15,9 13,9 19,2 29,2 19,2 37 68 94 1.002 1.014 1.026 SSE 9,1 61,1 216,6
03/2019 8,3 10,8 15,9 15,3 12,1 19,4 28,3 20,0 30 60 90 1.012 1.024 1.031 S 5,8 64,8 35,8
02/2019 6,6 8,9 12,3 13,0 13,3 17,2 22,4 15,8 33 65 83 996 1.026 1.035 S 5,5 79,6 0,0
01/2019 4,2 8,9 14,2 12,7 11,6 16,7 20,9 16,7 40 57 84 1.003 1.020 1.032 SSO 7,4 80,6 1,2
12/2018 6,3 10,7 15,9 14,5 14,2 18,7 24,6 18,3 47 67 88 1.010 1.026 1.032 SSO 5,6 63,0 24,0
11/2018 8,3 13,1 17,2 16,0 16,3 19,1 22,4 14,1 43 68 95 1.002 1.016 1.025 SO 6,5 75,9 318,0
10/2018 9,1 16,2 21,2 19,3 15,4 22,7 29,4 20,3 42 71 90 1.001 1.015 1.026 S 6,0 61,1 153,6
09/2018 17,1 21,7 24,9 24,6 25,1 27,7 31,7 14,6 63 78 88 1.013 1.020 1.029 4,5 46,7 109,6
Tots els anys disponibles
2018 4,6 15,8 27,7 19,0 8,4 22,6 37,1 32,5 35 67 95 994 1.017 1.036 SSE 6,5 76,0 924,6
2017 1,4 16,3 26,9 19,8 9,6 23,3 39,0 37,6 33 68 93 1.002 1.017 1.038 SE 0,0 97,0 399,0
2016 4,8 16,0 25,6 19,4 12,4 22,8 39,6 34,8 29 66 93 993 1.017 1.036 93,0 543,9
Temperatura (°C)
Humitat relativa (%)
Velocitat del vent i ràfega màxima (km/h)
Direcció del vent (°)
Pressió (hPa)
Precipitació (mm)
Nota sobre les dades: s'avisa a l'usuari de la provisionalitat i no oficialitat d'aquestes dades
Logo AVAMET blanc
Web allotjada a Sollutia
Llicència de Creative CommonsLa web d'AVAMET i els seus continguts estan subjectes a una llicència de
Reconeixement - No Comercial - Compartir igual
Últimes estacions: Villena - Villa Ventín (Soci), Benissa - Convent (Soci), Xàbia Fontanella (Soci), Castielfabib (Soci), Sant Mateu (Soci), Vallada (Soci), Agullent (Soci), - - -